KGVT

Majors Airport

Greenville, Texas, USA
METAR KGVT 201450Z AUTO 15013G17KT 10SM BKN026 BKN037 BKN090 22/17 A2996 RMK AO2 LTG DSNT W AND NW
Observed Flight Rules
Feb-20 @ 14:50 UTC (2 hours ago) Marginal Visual Flight Rules
Wind Visibility Clouds
150° at 13 knots
 Gusting to 17 knots
10 miles
  • Broken at 2,600' AGL
  • Broken at 3,700' AGL
  • Broken at 9,000' AGL
Temperatures Readings
Current 22°C / 72°F
Dewpoint 17°C / 63°F
Humidity 73%
Altimeter 29.96" Hg
Pressure 1015 hPa
Elevation 163
METAR KGVT 201450Z AUTO 15013G17KT 10SM BKN026 BKN037 BKN090 22/17 A2996 RMK AO2 LTG DSNT W AND NW
Observed Flight Rules
Feb-20 @ 14:50 UTC
(2 hours ago)
MVFR
Wind Visibility
150° at 13 knots
 Gusting to 17 knots
10 miles
Clouds
  • Broken at 2,600' AGL
  • Broken at 3,700' AGL
  • Broken at 9,000' AGL
Temperature Dewpoint
22°C / 72°F 17°C / 63°F
Humidity Altimeter Pressure
73% 29.96" Hg 1015 hPa